sensor_id;sensor_type;location;lat;lon;timestamp;temperature;humidity
23143;DHT22;11740;51.168;4.112;2023-03-14T00:01:35;10.80;1.00
23143;DHT22;11740;51.168;4.112;2023-03-14T00:03:54;10.80;1.00
23143;DHT22;11740;51.168;4.112;2023-03-14T00:06:21;10.70;1.00
23143;DHT22;11740;51.168;4.112;2023-03-14T00:08:49;10.70;1.00
23143;DHT22;11740;51.168;4.112;2023-03-14T00:11:19;10.70;1.00
23143;DHT22;11740;51.168;4.112;2023-03-14T00:13:47;10.60;1.00
23143;DHT22;11740;51.168;4.112;2023-03-14T00:16:15;10.60;1.00
23143;DHT22;11740;51.168;4.112;2023-03-14T00:18:42;10.60;1.00
23143;DHT22;11740;51.168;4.112;2023-03-14T00:21:10;10.60;1.00
23143;DHT22;11740;51.168;4.112;2023-03-14T00:23:38;10.60;1.00
23143;DHT22;11740;51.168;4.112;2023-03-14T00:26:10;10.50;1.00
23143;DHT22;11740;51.168;4.112;2023-03-14T00:28:39;10.40;1.00
23143;DHT22;11740;51.168;4.112;2023-03-14T00:31:06;10.40;8.20
23143;DHT22;11740;51.168;4.112;2023-03-14T00:33:34;10.40;10.10
23143;DHT22;11740;51.168;4.112;2023-03-14T00:36:12;10.40;2.40
23143;DHT22;11740;51.168;4.112;2023-03-14T00:38:40;10.50;23.30
23143;DHT22;11740;51.168;4.112;2023-03-14T00:41:09;10.40;89.50
23143;DHT22;11740;51.168;4.112;2023-03-14T00:43:37;10.40;99.90
23143;DHT22;11740;51.168;4.112;2023-03-14T00:46:05;10.40;99.90
23143;DHT22;11740;51.168;4.112;2023-03-14T00:48:32;10.40;99.90
23143;DHT22;11740;51.168;4.112;2023-03-14T00:50:59;10.40;99.90
23143;DHT22;11740;51.168;4.112;2023-03-14T00:53:26;10.40;99.90
23143;DHT22;11740;51.168;4.112;2023-03-14T00:55:53;10.30;99.90
23143;DHT22;11740;51.168;4.112;2023-03-14T00:58:20;10.30;99.90
23143;DHT22;11740;51.168;4.112;2023-03-14T01:00:47;10.30;99.90
23143;DHT22;11740;51.168;4.112;2023-03-14T01:03:14;10.30;99.90
23143;DHT22;11740;51.168;4.112;2023-03-14T01:05:41;10.30;99.90
23143;DHT22;11740;51.168;4.112;2023-03-14T01:08:08;10.30;99.90
23143;DHT22;11740;51.168;4.112;2023-03-14T01:10:38;10.20;1.00
23143;DHT22;11740;51.168;4.112;2023-03-14T01:13:07;10.20;1.00
23143;DHT22;11740;51.168;4.112;2023-03-14T01:15:34;10.20;1.00
23143;DHT22;11740;51.168;4.112;2023-03-14T01:18:02;10.20;1.00
23143;DHT22;11740;51.168;4.112;2023-03-14T01:20:29;10.10;1.00
23143;DHT22;11740;51.168;4.112;2023-03-14T01:22:57;10.10;27.10
23143;DHT22;11740;51.168;4.112;2023-03-14T01:25:23;10.10;31.90
23143;DHT22;11740;51.168;4.112;2023-03-14T01:27:50;10.10;31.80
23143;DHT22;11740;51.168;4.112;2023-03-14T01:30:17;10.10;70.40
23143;DHT22;11740;51.168;4.112;2023-03-14T01:32:44;10.10;32.40
23143;DHT22;11740;51.168;4.112;2023-03-14T01:35:11;10.10;99.90
23143;DHT22;11740;51.168;4.112;2023-03-14T01:37:38;10.10;99.90
23143;DHT22;11740;51.168;4.112;2023-03-14T01:40:05;10.00;99.90
23143;DHT22;11740;51.168;4.112;2023-03-14T01:42:32;10.10;96.90
23143;DHT22;11740;51.168;4.112;2023-03-14T01:45:00;10.10;99.90
23143;DHT22;11740;51.168;4.112;2023-03-14T01:47:27;10.00;99.90
23143;DHT22;11740;51.168;4.112;2023-03-14T01:49:59;10.00;99.90
23143;DHT22;11740;51.168;4.112;2023-03-14T01:52:38;10.10;99.90
23143;DHT22;11740;51.168;4.112;2023-03-14T01:55:15;10.00;99.90
23143;DHT22;11740;51.168;4.112;2023-03-14T01:57:49;10.00;99.90
23143;DHT22;11740;51.168;4.112;2023-03-14T02:00:20;10.00;99.90
23143;DHT22;11740;51.168;4.112;2023-03-14T02:02:52;10.00;99.90
23143;DHT22;11740;51.168;4.112;2023-03-14T02:05:21;10.00;99.90
23143;DHT22;11740;51.168;4.112;2023-03-14T02:07:51;10.00;99.90
23143;DHT22;11740;51.168;4.112;2023-03-14T02:10:20;10.00;99.90
23143;DHT22;11740;51.168;4.112;2023-03-14T02:12:49;10.00;99.90
23143;DHT22;11740;51.168;4.112;2023-03-14T02:15:17;10.00;99.90
23143;DHT22;11740;51.168;4.112;2023-03-14T02:17:44;10.00;99.90
23143;DHT22;11740;51.168;4.112;2023-03-14T02:20:32;9.90;99.90
23143;DHT22;11740;51.168;4.112;2023-03-14T02:23:03;10.00;99.90
23143;DHT22;11740;51.168;4.112;2023-03-14T02:25:42;9.90;99.90
23143;DHT22;11740;51.168;4.112;2023-03-14T02:28:18;10.00;99.90
23143;DHT22;11740;51.168;4.112;2023-03-14T02:30:45;10.00;99.90
23143;DHT22;11740;51.168;4.112;2023-03-14T02:33:13;10.00;99.90
23143;DHT22;11740;51.168;4.112;2023-03-14T02:41:00;10.00;99.90
23143;DHT22;11740;51.168;4.112;2023-03-14T02:43:26;10.00;99.90
23143;DHT22;11740;51.168;4.112;2023-03-14T02:45:53;10.00;99.90
23143;DHT22;11740;51.168;4.112;2023-03-14T02:48:22;10.00;1.00
23143;DHT22;11740;51.168;4.112;2023-03-14T02:50:52;9.90;1.00
23143;DHT22;11740;51.168;4.112;2023-03-14T02:53:28;9.90;1.00
23143;DHT22;11740;51.168;4.112;2023-03-14T02:55:59;9.90;1.00
23143;DHT22;11740;51.168;4.112;2023-03-14T02:58:27;9.90;1.00
23143;DHT22;11740;51.168;4.112;2023-03-14T03:00:54;9.90;1.00
23143;DHT22;11740;51.168;4.112;2023-03-14T03:03:21;9.90;1.00
23143;DHT22;11740;51.168;4.112;2023-03-14T03:05:49;9.90;1.00
23143;DHT22;11740;51.168;4.112;2023-03-14T03:08:17;9.90;99.90
23143;DHT22;11740;51.168;4.112;2023-03-14T03:10:45;9.90;99.90
23143;DHT22;11740;51.168;4.112;2023-03-14T03:13:12;9.90;1.00
23143;DHT22;11740;51.168;4.112;2023-03-14T03:15:39;9.90;1.00
23143;DHT22;11740;51.168;4.112;2023-03-14T03:18:07;9.90;1.00
23143;DHT22;11740;51.168;4.112;2023-03-14T03:20:34;9.90;99.90
23143;DHT22;11740;51.168;4.112;2023-03-14T03:23:01;9.90;99.90
23143;DHT22;11740;51.168;4.112;2023-03-14T03:25:28;9.90;99.90
23143;DHT22;11740;51.168;4.112;2023-03-14T03:27:55;9.90;99.90
23143;DHT22;11740;51.168;4.112;2023-03-14T03:30:22;9.80;99.90
23143;DHT22;11740;51.168;4.112;2023-03-14T03:32:49;9.90;99.90
23143;DHT22;11740;51.168;4.112;2023-03-14T03:35:16;9.90;1.00
23143;DHT22;11740;51.168;4.112;2023-03-14T03:37:43;9.80;1.00
23143;DHT22;11740;51.168;4.112;2023-03-14T03:40:10;9.80;1.00
23143;DHT22;11740;51.168;4.112;2023-03-14T03:42:37;9.80;1.00
23143;DHT22;11740;51.168;4.112;2023-03-14T03:45:04;9.80;82.60
23143;DHT22;11740;51.168;4.112;2023-03-14T03:47:31;9.80;1.00
23143;DHT22;11740;51.168;4.112;2023-03-14T03:49:58;9.80;28.30
23143;DHT22;11740;51.168;4.112;2023-03-14T03:52:24;9.80;99.90
23143;DHT22;11740;51.168;4.112;2023-03-14T03:54:51;9.80;99.90
23143;DHT22;11740;51.168;4.112;2023-03-14T03:57:19;9.80;99.90
23143;DHT22;11740;51.168;4.112;2023-03-14T03:59:46;9.80;99.90
23143;DHT22;11740;51.168;4.112;2023-03-14T04:02:13;9.80;99.90
23143;DHT22;11740;51.168;4.112;2023-03-14T04:04:40;9.80;99.90
23143;DHT22;11740;51.168;4.112;2023-03-14T04:07:06;9.80;45.10
23143;DHT22;11740;51.168;4.112;2023-03-14T04:09:33;9.80;99.90
23143;DHT22;11740;51.168;4.112;2023-03-14T04:12:00;9.80;99.90
23143;DHT22;11740;51.168;4.112;2023-03-14T04:14:27;9.80;99.90
23143;DHT22;11740;51.168;4.112;2023-03-14T04:16:54;9.80;99.90
23143;DHT22;11740;51.168;4.112;2023-03-14T04:19:20;9.80;99.90
23143;DHT22;11740;51.168;4.112;2023-03-14T04:21:47;9.70;99.90
23143;DHT22;11740;51.168;4.112;2023-03-14T04:24:14;9.80;99.90
23143;DHT22;11740;51.168;4.112;2023-03-14T04:26:41;9.80;1.00
23143;DHT22;11740;51.168;4.112;2023-03-14T04:29:08;9.80;1.00
23143;DHT22;11740;51.168;4.112;2023-03-14T04:31:37;9.80;1.00
23143;DHT22;11740;51.168;4.112;2023-03-14T04:34:04;9.80;1.00
23143;DHT22;11740;51.168;4.112;2023-03-14T04:36:31;9.80;1.00
23143;DHT22;11740;51.168;4.112;2023-03-14T04:38:57;9.80;83.90
23143;DHT22;11740;51.168;4.112;2023-03-14T04:41:24;9.80;21.50
23143;DHT22;11740;51.168;4.112;2023-03-14T04:43:51;9.80;22.80
23143;DHT22;11740;51.168;4.112;2023-03-14T04:46:18;9.80;99.90
23143;DHT22;11740;51.168;4.112;2023-03-14T04:48:45;9.80;99.90
23143;DHT22;11740;51.168;4.112;2023-03-14T04:51:12;9.80;99.90
23143;DHT22;11740;51.168;4.112;2023-03-14T04:53:38;9.80;1.00
23143;DHT22;11740;51.168;4.112;2023-03-14T04:56:05;9.80;1.00
23143;DHT22;11740;51.168;4.112;2023-03-14T04:58:33;9.80;1.00
23143;DHT22;11740;51.168;4.112;2023-03-14T05:01:03;9.90;1.00
23143;DHT22;11740;51.168;4.112;2023-03-14T05:03:31;9.80;1.00
23143;DHT22;11740;51.168;4.112;2023-03-14T05:05:58;9.80;1.00
23143;DHT22;11740;51.168;4.112;2023-03-14T05:08:25;9.80;1.00
23143;DHT22;11740;51.168;4.112;2023-03-14T05:10:52;9.80;1.00
23143;DHT22;11740;51.168;4.112;2023-03-14T05:13:20;9.80;1.00
23143;DHT22;11740;51.168;4.112;2023-03-14T05:15:48;9.80;1.00
23143;DHT22;11740;51.168;4.112;2023-03-14T05:18:15;9.80;1.00
23143;DHT22;11740;51.168;4.112;2023-03-14T05:20:42;9.80;99.90
23143;DHT22;11740;51.168;4.112;2023-03-14T05:23:11;9.90;99.90
23143;DHT22;11740;51.168;4.112;2023-03-14T05:25:38;9.90;99.90
23143;DHT22;11740;51.168;4.112;2023-03-14T05:28:05;9.90;99.90
23143;DHT22;11740;51.168;4.112;2023-03-14T05:30:32;9.90;99.90
23143;DHT22;11740;51.168;4.112;2023-03-14T05:33:00;9.80;99.90
23143;DHT22;11740;51.168;4.112;2023-03-14T05:35:27;9.80;99.90
23143;DHT22;11740;51.168;4.112;2023-03-14T05:37:53;9.80;1.00
23143;DHT22;11740;51.168;4.112;2023-03-14T05:40:20;9.80;1.00
23143;DHT22;11740;51.168;4.112;2023-03-14T05:42:47;9.80;1.00
23143;DHT22;11740;51.168;4.112;2023-03-14T05:45:14;9.80;1.00
23143;DHT22;11740;51.168;4.112;2023-03-14T05:47:41;9.80;1.00
23143;DHT22;11740;51.168;4.112;2023-03-14T05:50:08;9.80;1.00
23143;DHT22;11740;51.168;4.112;2023-03-14T05:52:35;9.70;1.00
23143;DHT22;11740;51.168;4.112;2023-03-14T05:55:03;9.80;1.00
23143;DHT22;11740;51.168;4.112;2023-03-14T05:57:30;9.80;1.00
23143;DHT22;11740;51.168;4.112;2023-03-14T05:59:56;9.70;41.80
23143;DHT22;11740;51.168;4.112;2023-03-14T06:02:23;9.70;1.00
23143;DHT22;11740;51.168;4.112;2023-03-14T06:04:50;9.70;64.20
23143;DHT22;11740;51.168;4.112;2023-03-14T06:07:17;9.70;1.00
23143;DHT22;11740;51.168;4.112;2023-03-14T06:09:44;9.70;1.00
23143;DHT22;11740;51.168;4.112;2023-03-14T06:12:11;9.70;1.00
23143;DHT22;11740;51.168;4.112;2023-03-14T06:14:37;9.60;99.90
23143;DHT22;11740;51.168;4.112;2023-03-14T06:17:04;9.40;1.00
23143;DHT22;11740;51.168;4.112;2023-03-14T06:19:31;9.20;24.80
23143;DHT22;11740;51.168;4.112;2023-03-14T06:21:58;9.10;1.00
23143;DHT22;11740;51.168;4.112;2023-03-14T06:24:25;9.00;1.00
23143;DHT22;11740;51.168;4.112;2023-03-14T06:26:51;8.90;99.90
23143;DHT22;11740;51.168;4.112;2023-03-14T06:29:18;8.90;99.90
23143;DHT22;11740;51.168;4.112;2023-03-14T06:31:45;8.80;99.90
23143;DHT22;11740;51.168;4.112;2023-03-14T06:34:12;8.70;99.90
23143;DHT22;11740;51.168;4.112;2023-03-14T06:36:40;8.60;99.90
23143;DHT22;11740;51.168;4.112;2023-03-14T06:39:06;8.60;99.90
23143;DHT22;11740;51.168;4.112;2023-03-14T06:41:33;8.50;99.90
23143;DHT22;11740;51.168;4.112;2023-03-14T06:44:00;8.40;99.90
23143;DHT22;11740;51.168;4.112;2023-03-14T06:46:27;8.40;67.20
23143;DHT22;11740;51.168;4.112;2023-03-14T06:48:54;8.30;7.60
23143;DHT22;11740;51.168;4.112;2023-03-14T06:51:21;8.30;32.90
23143;DHT22;11740;51.168;4.112;2023-03-14T06:53:48;8.20;1.00
23143;DHT22;11740;51.168;4.112;2023-03-14T06:56:15;8.20;88.20
23143;DHT22;11740;51.168;4.112;2023-03-14T06:58:41;8.10;99.90
23143;DHT22;11740;51.168;4.112;2023-03-14T07:01:27;8.10;99.90
23143;DHT22;11740;51.168;4.112;2023-03-14T07:03:54;8.00;99.90
23143;DHT22;11740;51.168;4.112;2023-03-14T07:06:21;8.10;34.10
23143;DHT22;11740;51.168;4.112;2023-03-14T07:08:48;8.00;92.80
23143;DHT22;11740;51.168;4.112;2023-03-14T07:11:15;8.00;31.10
23143;DHT22;11740;51.168;4.112;2023-03-14T07:13:42;8.00;30.80
23143;DHT22;11740;51.168;4.112;2023-03-14T07:16:09;8.00;32.30
23143;DHT22;11740;51.168;4.112;2023-03-14T07:18:36;7.90;30.80
23143;DHT22;11740;51.168;4.112;2023-03-14T07:21:04;7.90;99.90
23143;DHT22;11740;51.168;4.112;2023-03-14T07:23:35;7.90;99.90
23143;DHT22;11740;51.168;4.112;2023-03-14T07:26:02;7.90;99.90
23143;DHT22;11740;51.168;4.112;2023-03-14T07:28:29;7.90;99.90
23143;DHT22;11740;51.168;4.112;2023-03-14T07:30:56;7.90;99.90
23143;DHT22;11740;51.168;4.112;2023-03-14T07:33:23;7.90;99.90
23143;DHT22;11740;51.168;4.112;2023-03-14T07:35:49;7.80;99.90
23143;DHT22;11740;51.168;4.112;2023-03-14T07:38:17;7.70;99.90
23143;DHT22;11740;51.168;4.112;2023-03-14T07:40:46;7.70;99.90
23143;DHT22;11740;51.168;4.112;2023-03-14T07:43:13;7.70;99.90
23143;DHT22;11740;51.168;4.112;2023-03-14T07:45:40;7.70;99.90
23143;DHT22;11740;51.168;4.112;2023-03-14T07:48:08;7.80;99.90
23143;DHT22;11740;51.168;4.112;2023-03-14T07:50:36;7.70;99.90
23143;DHT22;11740;51.168;4.112;2023-03-14T07:53:03;7.70;1.00
23143;DHT22;11740;51.168;4.112;2023-03-14T07:55:30;7.70;1.00
23143;DHT22;11740;51.168;4.112;2023-03-14T07:57:56;7.70;1.00
23143;DHT22;11740;51.168;4.112;2023-03-14T08:00:23;7.70;1.00
23143;DHT22;11740;51.168;4.112;2023-03-14T08:02:50;7.70;99.90
23143;DHT22;11740;51.168;4.112;2023-03-14T08:05:17;7.60;99.90
23143;DHT22;11740;51.168;4.112;2023-03-14T08:07:44;7.70;99.90
23143;DHT22;11740;51.168;4.112;2023-03-14T08:10:11;7.60;99.90
23143;DHT22;11740;51.168;4.112;2023-03-14T08:12:42;7.60;99.90
23143;DHT22;11740;51.168;4.112;2023-03-14T08:15:09;7.60;99.90
23143;DHT22;11740;51.168;4.112;2023-03-14T08:17:36;7.60;99.90
23143;DHT22;11740;51.168;4.112;2023-03-14T08:20:03;7.60;99.90
23143;DHT22;11740;51.168;4.112;2023-03-14T08:22:34;7.60;99.90
23143;DHT22;11740;51.168;4.112;2023-03-14T08:25:01;7.50;99.90
23143;DHT22;11740;51.168;4.112;2023-03-14T08:27:27;7.50;99.90
23143;DHT22;11740;51.168;4.112;2023-03-14T08:29:54;7.50;30.70
23143;DHT22;11740;51.168;4.112;2023-03-14T08:32:21;7.50;1.00
23143;DHT22;11740;51.168;4.112;2023-03-14T08:34:50;7.50;1.00
23143;DHT22;11740;51.168;4.112;2023-03-14T08:37:16;7.50;1.00
23143;DHT22;11740;51.168;4.112;2023-03-14T08:39:52;7.50;1.00
23143;DHT22;11740;51.168;4.112;2023-03-14T08:42:19;7.50;1.00
23143;DHT22;11740;51.168;4.112;2023-03-14T08:44:46;7.50;1.00
23143;DHT22;11740;51.168;4.112;2023-03-14T08:47:13;7.50;1.00
23143;DHT22;11740;51.168;4.112;2023-03-14T08:49:40;7.40;1.00
23143;DHT22;11740;51.168;4.112;2023-03-14T08:52:07;7.40;99.90
23143;DHT22;11740;51.168;4.112;2023-03-14T08:54:34;7.40;99.90
23143;DHT22;11740;51.168;4.112;2023-03-14T08:57:01;7.30;99.90
23143;DHT22;11740;51.168;4.112;2023-03-14T08:59:27;7.30;99.90
23143;DHT22;11740;51.168;4.112;2023-03-14T09:01:54;7.40;99.90
23143;DHT22;11740;51.168;4.112;2023-03-14T09:04:21;7.30;1.00
23143;DHT22;11740;51.168;4.112;2023-03-14T09:06:48;7.40;1.00
23143;DHT22;11740;51.168;4.112;2023-03-14T09:09:15;7.40;1.00
23143;DHT22;11740;51.168;4.112;2023-03-14T09:11:42;7.40;1.00
23143;DHT22;11740;51.168;4.112;2023-03-14T09:14:09;7.50;1.00
23143;DHT22;11740;51.168;4.112;2023-03-14T09:16:36;7.50;1.00
23143;DHT22;11740;51.168;4.112;2023-03-14T09:19:03;7.40;1.00
23143;DHT22;11740;51.168;4.112;2023-03-14T09:21:30;7.40;1.00
23143;DHT22;11740;51.168;4.112;2023-03-14T09:23:56;7.40;1.00
23143;DHT22;11740;51.168;4.112;2023-03-14T09:26:23;7.30;1.00
23143;DHT22;11740;51.168;4.112;2023-03-14T09:28:50;7.30;1.00
23143;DHT22;11740;51.168;4.112;2023-03-14T09:31:17;7.30;1.00
23143;DHT22;11740;51.168;4.112;2023-03-14T09:33:44;7.20;1.00
23143;DHT22;11740;51.168;4.112;2023-03-14T09:36:11;7.30;1.00
23143;DHT22;11740;51.168;4.112;2023-03-14T09:38:38;7.20;1.00
23143;DHT22;11740;51.168;4.112;2023-03-14T09:41:15;7.20;1.00
23143;DHT22;11740;51.168;4.112;2023-03-14T09:44:08;7.20;1.00
23143;DHT22;11740;51.168;4.112;2023-03-14T09:46:40;7.20;6.60
23143;DHT22;11740;51.168;4.112;2023-03-14T09:49:16;7.10;1.00
23143;DHT22;11740;51.168;4.112;2023-03-14T09:51:45;7.10;1.00
23143;DHT22;11740;51.168;4.112;2023-03-14T09:54:30;7.10;1.00
23143;DHT22;11740;51.168;4.112;2023-03-14T09:56:58;7.10;99.90
23143;DHT22;11740;51.168;4.112;2023-03-14T09:59:25;7.10;99.90
23143;DHT22;11740;51.168;4.112;2023-03-14T10:01:55;7.20;30.80
23143;DHT22;11740;51.168;4.112;2023-03-14T10:04:22;7.20;61.90
23143;DHT22;11740;51.168;4.112;2023-03-14T10:06:50;7.20;99.90
23143;DHT22;11740;51.168;4.112;2023-03-14T10:09:21;7.10;85.00
23143;DHT22;11740;51.168;4.112;2023-03-14T10:11:56;7.10;35.10
23143;DHT22;11740;51.168;4.112;2023-03-14T10:14:33;7.10;99.90
23143;DHT22;11740;51.168;4.112;2023-03-14T10:17:09;7.10;87.50
23143;DHT22;11740;51.168;4.112;2023-03-14T10:19:59;7.20;77.20
23143;DHT22;11740;51.168;4.112;2023-03-14T10:22:30;7.20;99.90
23143;DHT22;11740;51.168;4.112;2023-03-14T10:25:06;7.20;31.20
23143;DHT22;11740;51.168;4.112;2023-03-14T10:27:51;7.30;99.90
23143;DHT22;11740;51.168;4.112;2023-03-14T10:30:34;7.30;27.00
23143;DHT22;11740;51.168;4.112;2023-03-14T10:33:11;7.40;1.00
23143;DHT22;11740;51.168;4.112;2023-03-14T10:35:41;7.40;1.00
23143;DHT22;11740;51.168;4.112;2023-03-14T10:38:11;7.50;1.00
23143;DHT22;11740;51.168;4.112;2023-03-14T10:40:47;7.50;1.00
23143;DHT22;11740;51.168;4.112;2023-03-14T10:43:21;7.50;1.00
23143;DHT22;11740;51.168;4.112;2023-03-14T10:45:56;7.50;1.00
23143;DHT22;11740;51.168;4.112;2023-03-14T10:48:35;7.50;1.00
23143;DHT22;11740;51.168;4.112;2023-03-14T10:51:05;7.50;99.90
23143;DHT22;11740;51.168;4.112;2023-03-14T10:54:19;7.50;99.90
23143;DHT22;11740;51.168;4.112;2023-03-14T10:56:23;7.60;99.90
23143;DHT22;11740;51.168;4.112;2023-03-14T10:58:56;7.60;99.90
23143;DHT22;11740;51.168;4.112;2023-03-14T11:04:31;7.60;99.90
23143;DHT22;11740;51.168;4.112;2023-03-14T11:07:29;7.60;99.90
23143;DHT22;11740;51.168;4.112;2023-03-14T11:10:18;7.60;72.00
23143;DHT22;11740;51.168;4.112;2023-03-14T11:12:51;7.60;30.70
23143;DHT22;11740;51.168;4.112;2023-03-14T11:23:37;7.40;55.30
23143;DHT22;11740;51.168;4.112;2023-03-14T11:28:37;7.60;66.40
23143;DHT22;11740;51.168;4.112;2023-03-14T11:33:47;7.50;41.90
23143;DHT22;11740;51.168;4.112;2023-03-14T11:36:20;7.50;16.00
23143;DHT22;11740;51.168;4.112;2023-03-14T11:38:50;7.50;86.80
23143;DHT22;11740;51.168;4.112;2023-03-14T11:41:27;7.50;99.90
23143;DHT22;11740;51.168;4.112;2023-03-14T11:43:57;7.60;99.90
23143;DHT22;11740;51.168;4.112;2023-03-14T11:49:03;7.70;99.90
23143;DHT22;11740;51.168;4.112;2023-03-14T11:51:38;7.70;99.90
23143;DHT22;11740;51.168;4.112;2023-03-14T11:54:17;7.70;99.90
23143;DHT22;11740;51.168;4.112;2023-03-14T11:56:51;7.70;89.60
23143;DHT22;11740;51.168;4.112;2023-03-14T12:02:16;7.70;6.50
23143;DHT22;11740;51.168;4.112;2023-03-14T12:05:32;7.80;32.80
23143;DHT22;11740;51.168;4.112;2023-03-14T12:10:40;7.50;22.60
23143;DHT22;11740;51.168;4.112;2023-03-14T12:13:13;7.50;59.40
23143;DHT22;11740;51.168;4.112;2023-03-14T12:15:55;7.40;63.40
23143;DHT22;11740;51.168;4.112;2023-03-14T12:18:34;7.40;60.60
23143;DHT22;11740;51.168;4.112;2023-03-14T12:21:09;7.40;63.60
23143;DHT22;11740;51.168;4.112;2023-03-14T12:23:41;7.40;29.40
23143;DHT22;11740;51.168;4.112;2023-03-14T12:28:44;7.50;99.90
23143;DHT22;11740;51.168;4.112;2023-03-14T12:39:31;7.60;1.00
23143;DHT22;11740;51.168;4.112;2023-03-14T12:46:59;7.70;1.00
23143;DHT22;11740;51.168;4.112;2023-03-14T12:49:30;7.70;1.00
23143;DHT22;11740;51.168;4.112;2023-03-14T12:51:59;7.70;1.00
23143;DHT22;11740;51.168;4.112;2023-03-14T12:54:35;7.60;99.90
23143;DHT22;11740;51.168;4.112;2023-03-14T12:59:59;7.60;99.90
23143;DHT22;11740;51.168;4.112;2023-03-14T13:02:28;7.50;99.90
23143;DHT22;11740;51.168;4.112;2023-03-14T13:05:01;7.60;99.90
23143;DHT22;11740;51.168;4.112;2023-03-14T13:08:01;7.50;99.90
23143;DHT22;11740;51.168;4.112;2023-03-14T13:15:25;7.60;1.00
23143;DHT22;11740;51.168;4.112;2023-03-14T13:17:54;7.50;1.00
23143;DHT22;11740;51.168;4.112;2023-03-14T13:23:27;7.50;1.00
23143;DHT22;11740;51.168;4.112;2023-03-14T13:25:57;7.60;1.00
23143;DHT22;11740;51.168;4.112;2023-03-14T13:28:26;7.60;1.00
23143;DHT22;11740;51.168;4.112;2023-03-14T13:30:55;7.70;1.00
23143;DHT22;11740;51.168;4.112;2023-03-14T13:33:24;7.70;1.00
23143;DHT22;11740;51.168;4.112;2023-03-14T13:35:55;7.70;1.00
23143;DHT22;11740;51.168;4.112;2023-03-14T13:38:25;7.70;1.00
23143;DHT22;11740;51.168;4.112;2023-03-14T13:40:54;7.70;1.00
23143;DHT22;11740;51.168;4.112;2023-03-14T13:43:40;7.70;1.00
23143;DHT22;11740;51.168;4.112;2023-03-14T13:46:16;7.70;1.00
23143;DHT22;11740;51.168;4.112;2023-03-14T13:48:57;7.70;1.00
23143;DHT22;11740;51.168;4.112;2023-03-14T13:51:25;7.70;1.00
23143;DHT22;11740;51.168;4.112;2023-03-14T13:53:54;7.70;1.00
23143;DHT22;11740;51.168;4.112;2023-03-14T13:56:22;7.70;99.90
23143;DHT22;11740;51.168;4.112;2023-03-14T13:58:54;7.60;99.90
23143;DHT22;11740;51.168;4.112;2023-03-14T14:01:25;7.60;99.90
23143;DHT22;11740;51.168;4.112;2023-03-14T14:04:07;7.40;99.90
23143;DHT22;11740;51.168;4.112;2023-03-14T14:06:36;7.30;99.90
23143;DHT22;11740;51.168;4.112;2023-03-14T14:09:12;7.20;99.90
23143;DHT22;11740;51.168;4.112;2023-03-14T14:17:38;7.10;99.90
23143;DHT22;11740;51.168;4.112;2023-03-14T14:20:07;7.10;99.90
23143;DHT22;11740;51.168;4.112;2023-03-14T14:22:37;7.10;99.90
23143;DHT22;11740;51.168;4.112;2023-03-14T14:25:04;7.10;99.90
23143;DHT22;11740;51.168;4.112;2023-03-14T14:27:39;7.20;99.90
23143;DHT22;11740;51.168;4.112;2023-03-14T14:32:45;7.20;99.90
23143;DHT22;11740;51.168;4.112;2023-03-14T14:35:49;7.20;99.90
23143;DHT22;11740;51.168;4.112;2023-03-14T14:38:12;7.30;99.90
23143;DHT22;11740;51.168;4.112;2023-03-14T14:40:44;7.30;99.90
23143;DHT22;11740;51.168;4.112;2023-03-14T14:43:14;7.40;99.90
23143;DHT22;11740;51.168;4.112;2023-03-14T14:45:44;7.40;99.90
23143;DHT22;11740;51.168;4.112;2023-03-14T14:48:12;7.40;99.90
23143;DHT22;11740;51.168;4.112;2023-03-14T14:50:50;7.50;99.90
23143;DHT22;11740;51.168;4.112;2023-03-14T14:53:22;7.50;99.90
23143;DHT22;11740;51.168;4.112;2023-03-14T14:55:50;7.50;99.90
23143;DHT22;11740;51.168;4.112;2023-03-14T14:58:28;7.50;99.90
23143;DHT22;11740;51.168;4.112;2023-03-14T15:00:57;7.40;99.90
23143;DHT22;11740;51.168;4.112;2023-03-14T15:03:27;7.40;99.90
23143;DHT22;11740;51.168;4.112;2023-03-14T15:05:55;7.40;99.90
23143;DHT22;11740;51.168;4.112;2023-03-14T15:08:23;7.30;99.90
23143;DHT22;11740;51.168;4.112;2023-03-14T15:10:51;7.40;99.90
23143;DHT22;11740;51.168;4.112;2023-03-14T15:13:18;7.40;99.90
23143;DHT22;11740;51.168;4.112;2023-03-14T15:15:45;7.40;99.90
23143;DHT22;11740;51.168;4.112;2023-03-14T15:18:14;7.40;99.90
23143;DHT22;11740;51.168;4.112;2023-03-14T15:20:45;7.40;99.90
23143;DHT22;11740;51.168;4.112;2023-03-14T15:23:13;7.40;99.90
23143;DHT22;11740;51.168;4.112;2023-03-14T15:25:44;7.40;99.90
23143;DHT22;11740;51.168;4.112;2023-03-14T15:28:22;7.40;99.90
23143;DHT22;11740;51.168;4.112;2023-03-14T15:30:51;7.40;99.90
23143;DHT22;11740;51.168;4.112;2023-03-14T15:33:20;7.40;99.90
23143;DHT22;11740;51.168;4.112;2023-03-14T15:35:47;7.40;99.90
23143;DHT22;11740;51.168;4.112;2023-03-14T15:38:16;7.40;99.90
23143;DHT22;11740;51.168;4.112;2023-03-14T15:40:47;7.30;99.90
23143;DHT22;11740;51.168;4.112;2023-03-14T15:43:15;7.30;99.90
23143;DHT22;11740;51.168;4.112;2023-03-14T15:45:42;7.30;99.90
23143;DHT22;11740;51.168;4.112;2023-03-14T15:48:16;7.30;99.90
23143;DHT22;11740;51.168;4.112;2023-03-14T15:50:45;7.30;99.90
23143;DHT22;11740;51.168;4.112;2023-03-14T15:53:12;7.30;99.90
23143;DHT22;11740;51.168;4.112;2023-03-14T15:55:39;7.30;99.90
23143;DHT22;11740;51.168;4.112;2023-03-14T15:58:08;7.30;99.90
23143;DHT22;11740;51.168;4.112;2023-03-14T16:00:41;7.30;99.90
23143;DHT22;11740;51.168;4.112;2023-03-14T16:03:08;7.30;99.90
23143;DHT22;11740;51.168;4.112;2023-03-14T16:05:35;7.30;99.90
23143;DHT22;11740;51.168;4.112;2023-03-14T16:08:02;7.30;99.90
23143;DHT22;11740;51.168;4.112;2023-03-14T16:10:29;7.30;99.90
23143;DHT22;11740;51.168;4.112;2023-03-14T16:12:56;7.30;99.90
23143;DHT22;11740;51.168;4.112;2023-03-14T16:15:23;7.40;99.90
23143;DHT22;11740;51.168;4.112;2023-03-14T16:17:52;7.40;99.90
23143;DHT22;11740;51.168;4.112;2023-03-14T16:20:20;7.50;99.90
23143;DHT22;11740;51.168;4.112;2023-03-14T16:22:47;7.50;99.90
23143;DHT22;11740;51.168;4.112;2023-03-14T16:25:14;7.50;99.90
23143;DHT22;11740;51.168;4.112;2023-03-14T16:27:42;7.50;99.90
23143;DHT22;11740;51.168;4.112;2023-03-14T16:30:09;7.60;99.90
23143;DHT22;11740;51.168;4.112;2023-03-14T16:32:37;7.50;99.90
23143;DHT22;11740;51.168;4.112;2023-03-14T16:35:04;7.50;99.90
23143;DHT22;11740;51.168;4.112;2023-03-14T16:37:31;7.50;99.90
23143;DHT22;11740;51.168;4.112;2023-03-14T16:39:58;7.50;99.90
23143;DHT22;11740;51.168;4.112;2023-03-14T16:42:38;7.50;99.90
23143;DHT22;11740;51.168;4.112;2023-03-14T16:45:25;7.40;99.90
23143;DHT22;11740;51.168;4.112;2023-03-14T16:47:52;7.40;99.90
23143;DHT22;11740;51.168;4.112;2023-03-14T16:50:19;7.40;99.90
23143;DHT22;11740;51.168;4.112;2023-03-14T16:52:46;7.40;99.90
23143;DHT22;11740;51.168;4.112;2023-03-14T16:55:15;7.40;99.90
23143;DHT22;11740;51.168;4.112;2023-03-14T16:57:42;7.40;99.90
23143;DHT22;11740;51.168;4.112;2023-03-14T17:00:09;7.30;99.90
23143;DHT22;11740;51.168;4.112;2023-03-14T17:02:37;7.30;99.90
23143;DHT22;11740;51.168;4.112;2023-03-14T17:05:04;7.30;99.90
23143;DHT22;11740;51.168;4.112;2023-03-14T17:07:31;7.30;99.90
23143;DHT22;11740;51.168;4.112;2023-03-14T17:09:58;7.30;99.90